sensor_id;sensor_type;location;lat;lon;timestamp;P1;durP1;ratioP1;P2;durP2;ratioP2
78181;SDS011;67441;50.116;8.696;2023-05-31T00:00:01;6.18;;;2.85;;
78181;SDS011;67441;50.116;8.696;2023-05-31T00:00:28;6.20;;;2.30;;
78181;SDS011;67441;50.116;8.696;2023-05-31T00:00:56;6.85;;;2.20;;
78181;SDS011;67441;50.116;8.696;2023-05-31T00:01:48;7.15;;;2.30;;
78181;SDS011;67441;50.116;8.696;2023-05-31T00:02:38;6.13;;;2.20;;
78181;SDS011;67441;50.116;8.696;2023-05-31T00:03:04;7.63;;;2.42;;
78181;SDS011;67441;50.116;8.696;2023-05-31T00:03:58;4.60;;;2.10;;
78181;SDS011;67441;50.116;8.696;2023-05-31T00:04:23;5.53;;;2.28;;
78181;SDS011;67441;50.116;8.696;2023-05-31T00:05:14;4.55;;;2.08;;
78181;SDS011;67441;50.116;8.696;2023-05-31T00:06:08;4.32;;;2.00;;
78181;SDS011;67441;50.116;8.696;2023-05-31T00:06:35;6.18;;;1.90;;
78181;SDS011;67441;50.116;8.696;2023-05-31T00:07:05;3.80;;;1.95;;
78181;SDS011;67441;50.116;8.696;2023-05-31T00:07:33;6.05;;;2.50;;
78181;SDS011;67441;50.116;8.696;2023-05-31T00:08:24;5.57;;;2.33;;
78181;SDS011;67441;50.116;8.696;2023-05-31T00:09:14;6.00;;;2.03;;
78181;SDS011;67441;50.116;8.696;2023-05-31T00:10:05;4.40;;;2.13;;
78181;SDS011;67441;50.116;8.696;2023-05-31T00:10:56;6.70;;;2.75;;
78181;SDS011;67441;50.116;8.696;2023-05-31T00:11:47;7.15;;;2.30;;
78181;SDS011;67441;50.116;8.696;2023-05-31T00:12:37;5.40;;;2.40;;
78181;SDS011;67441;50.116;8.696;2023-05-31T00:13:28;6.15;;;2.20;;
78181;SDS011;67441;50.116;8.696;2023-05-31T00:14:19;7.05;;;2.42;;
78181;SDS011;67441;50.116;8.696;2023-05-31T00:15:11;7.00;;;2.45;;
78181;SDS011;67441;50.116;8.696;2023-05-31T00:16:01;5.07;;;2.00;;
78181;SDS011;67441;50.116;8.696;2023-05-31T00:16:52;5.95;;;2.97;;
78181;SDS011;67441;50.116;8.696;2023-05-31T00:17:43;7.25;;;3.45;;
78181;SDS011;67441;50.116;8.696;2023-05-31T00:18:34;8.60;;;2.78;;
78181;SDS011;67441;50.116;8.696;2023-05-31T00:19:25;7.45;;;2.42;;
78181;SDS011;67441;50.116;8.696;2023-05-31T00:20:16;6.35;;;2.47;;
78181;SDS011;67441;50.116;8.696;2023-05-31T00:20:41;6.88;;;2.55;;
78181;SDS011;67441;50.116;8.696;2023-05-31T00:21:32;7.57;;;2.70;;
78181;SDS011;67441;50.116;8.696;2023-05-31T00:22:22;4.80;;;2.38;;
78181;SDS011;67441;50.116;8.696;2023-05-31T00:23:12;4.32;;;2.45;;
78181;SDS011;67441;50.116;8.696;2023-05-31T00:24:03;7.43;;;2.40;;
78181;SDS011;67441;50.116;8.696;2023-05-31T00:24:54;7.25;;;2.60;;
78181;SDS011;67441;50.116;8.696;2023-05-31T00:25:20;5.57;;;2.22;;
78181;SDS011;67441;50.116;8.696;2023-05-31T00:26:11;5.50;;;2.50;;
78181;SDS011;67441;50.116;8.696;2023-05-31T00:27:01;5.88;;;2.58;;
78181;SDS011;67441;50.116;8.696;2023-05-31T00:27:52;6.47;;;2.60;;
78181;SDS011;67441;50.116;8.696;2023-05-31T00:28:42;5.63;;;2.42;;
78181;SDS011;67441;50.116;8.696;2023-05-31T00:29:33;5.35;;;2.50;;
78181;SDS011;67441;50.116;8.696;2023-05-31T00:30:23;7.47;;;2.83;;
78181;SDS011;67441;50.116;8.696;2023-05-31T00:30:50;6.63;;;2.88;;
78181;SDS011;67441;50.116;8.696;2023-05-31T00:31:41;6.63;;;2.10;;
78181;SDS011;67441;50.116;8.696;2023-05-31T00:32:32;5.50;;;2.53;;
78181;SDS011;67441;50.116;8.696;2023-05-31T00:33:22;8.32;;;2.83;;
78181;SDS011;67441;50.116;8.696;2023-05-31T00:34:12;5.30;;;2.55;;
78181;SDS011;67441;50.116;8.696;2023-05-31T00:35:03;7.60;;;2.83;;
78181;SDS011;67441;50.116;8.696;2023-05-31T00:35:54;6.10;;;2.53;;
78181;SDS011;67441;50.116;8.696;2023-05-31T00:36:44;5.50;;;2.53;;
78181;SDS011;67441;50.116;8.696;2023-05-31T00:37:35;6.32;;;2.47;;
78181;SDS011;67441;50.116;8.696;2023-05-31T00:38:04;4.63;;;2.38;;
78181;SDS011;67441;50.116;8.696;2023-05-31T00:38:32;6.60;;;2.72;;
78181;SDS011;67441;50.116;8.696;2023-05-31T00:39:22;5.88;;;2.50;;
78181;SDS011;67441;50.116;8.696;2023-05-31T00:40:13;11.30;;;2.65;;
78181;SDS011;67441;50.116;8.696;2023-05-31T00:41:05;7.63;;;3.13;;
78181;SDS011;67441;50.116;8.696;2023-05-31T00:41:33;5.93;;;2.88;;
78181;SDS011;67441;50.116;8.696;2023-05-31T00:42:23;5.90;;;2.80;;
78181;SDS011;67441;50.116;8.696;2023-05-31T00:42:50;4.70;;;2.55;;
78181;SDS011;67441;50.116;8.696;2023-05-31T00:43:41;6.72;;;3.10;;
78181;SDS011;67441;50.116;8.696;2023-05-31T00:44:31;5.43;;;2.70;;
78181;SDS011;67441;50.116;8.696;2023-05-31T00:45:22;7.03;;;2.58;;
78181;SDS011;67441;50.116;8.696;2023-05-31T00:46:18;5.80;;;2.58;;
78181;SDS011;67441;50.116;8.696;2023-05-31T00:46:57;6.70;;;2.70;;
78181;SDS011;67441;50.116;8.696;2023-05-31T00:47:48;7.68;;;2.90;;
78181;SDS011;67441;50.116;8.696;2023-05-31T00:48:15;8.95;;;3.10;;
78181;SDS011;67441;50.116;8.696;2023-05-31T00:49:07;7.05;;;3.30;;
78181;SDS011;67441;50.116;8.696;2023-05-31T00:49:58;8.05;;;2.85;;
78181;SDS011;67441;50.116;8.696;2023-05-31T00:50:49;5.30;;;2.58;;
78181;SDS011;67441;50.116;8.696;2023-05-31T00:51:40;5.95;;;2.90;;
78181;SDS011;67441;50.116;8.696;2023-05-31T00:52:31;6.15;;;2.72;;
78181;SDS011;67441;50.116;8.696;2023-05-31T00:52:58;6.82;;;2.72;;
78181;SDS011;67441;50.116;8.696;2023-05-31T00:53:25;4.90;;;2.47;;
78181;SDS011;67441;50.116;8.696;2023-05-31T00:54:16;4.72;;;2.60;;
78181;SDS011;67441;50.116;8.696;2023-05-31T00:55:07;5.18;;;2.53;;
78181;SDS011;67441;50.116;8.696;2023-05-31T00:55:34;6.05;;;2.50;;
78181;SDS011;67441;50.116;8.696;2023-05-31T00:56:25;4.25;;;2.47;;
78181;SDS011;67441;50.116;8.696;2023-05-31T00:57:16;4.85;;;2.70;;
78181;SDS011;67441;50.116;8.696;2023-05-31T00:58:07;9.55;;;2.45;;
78181;SDS011;67441;50.116;8.696;2023-05-31T00:59:01;6.25;;;2.63;;
78181;SDS011;67441;50.116;8.696;2023-05-31T00:59:52;6.90;;;3.38;;
78181;SDS011;67441;50.116;8.696;2023-05-31T01:00:43;6.78;;;3.05;;
78181;SDS011;67441;50.116;8.696;2023-05-31T01:01:33;6.18;;;3.28;;
78181;SDS011;67441;50.116;8.696;2023-05-31T01:02:25;7.40;;;3.10;;
78181;SDS011;67441;50.116;8.696;2023-05-31T01:03:17;6.43;;;3.05;;
78181;SDS011;67441;50.116;8.696;2023-05-31T01:03:43;8.10;;;2.80;;
78181;SDS011;67441;50.116;8.696;2023-05-31T01:04:34;5.60;;;2.72;;
78181;SDS011;67441;50.116;8.696;2023-05-31T01:05:26;6.25;;;2.85;;
78181;SDS011;67441;50.116;8.696;2023-05-31T01:06:17;5.90;;;2.97;;
78181;SDS011;67441;50.116;8.696;2023-05-31T01:07:07;8.63;;;3.10;;
78181;SDS011;67441;50.116;8.696;2023-05-31T01:07:58;5.88;;;2.97;;
78181;SDS011;67441;50.116;8.696;2023-05-31T01:08:50;5.93;;;2.88;;
78181;SDS011;67441;50.116;8.696;2023-05-31T01:09:16;6.35;;;3.38;;
78181;SDS011;67441;50.116;8.696;2023-05-31T01:09:42;6.18;;;2.78;;
78181;SDS011;67441;50.116;8.696;2023-05-31T01:10:33;7.63;;;3.25;;
78181;SDS011;67441;50.116;8.696;2023-05-31T01:13:25;6.03;;;3.42;;
78181;SDS011;67441;50.116;8.696;2023-05-31T01:14:23;5.47;;;2.80;;
78181;SDS011;67441;50.116;8.696;2023-05-31T01:16:04;6.38;;;2.83;;
78181;SDS011;67441;50.116;8.696;2023-05-31T01:16:18;6.20;;;2.90;;
78181;SDS011;67441;50.116;8.696;2023-05-31T01:17:53;7.32;;;3.10;;
78181;SDS011;67441;50.116;8.696;2023-05-31T01:18:32;7.63;;;3.65;;
78181;SDS011;67441;50.116;8.696;2023-05-31T01:19:12;7.88;;;3.30;;
78181;SDS011;67441;50.116;8.696;2023-05-31T01:19:48;7.25;;;3.17;;
78181;SDS011;67441;50.116;8.696;2023-05-31T01:20:20;5.88;;;2.58;;
78181;SDS011;67441;50.116;8.696;2023-05-31T01:20:49;5.65;;;3.30;;
78181;SDS011;67441;50.116;8.696;2023-05-31T01:21:18;4.40;;;2.72;;
78181;SDS011;67441;50.116;8.696;2023-05-31T01:24:22;5.60;;;2.55;;
78181;SDS011;67441;50.116;8.696;2023-05-31T01:26:18;5.03;;;2.80;;
78181;SDS011;67441;50.116;8.696;2023-05-31T01:26:49;6.18;;;2.75;;
78181;SDS011;67441;50.116;8.696;2023-05-31T01:27:15;12.65;;;3.35;;
78181;SDS011;67441;50.116;8.696;2023-05-31T01:28:07;7.13;;;3.03;;
78181;SDS011;67441;50.116;8.696;2023-05-31T01:28:35;8.75;;;3.38;;
78181;SDS011;67441;50.116;8.696;2023-05-31T01:29:13;6.72;;;3.20;;
78181;SDS011;67441;50.116;8.696;2023-05-31T01:29:41;7.90;;;3.10;;
78181;SDS011;67441;50.116;8.696;2023-05-31T01:30:09;10.30;;;3.47;;
78181;SDS011;67441;50.116;8.696;2023-05-31T01:30:35;6.18;;;2.92;;
78181;SDS011;67441;50.116;8.696;2023-05-31T01:31:04;10.32;;;3.63;;
78181;SDS011;67441;50.116;8.696;2023-05-31T01:31:33;5.97;;;3.40;;
78181;SDS011;67441;50.116;8.696;2023-05-31T01:32:00;5.95;;;2.92;;
78181;SDS011;67441;50.116;8.696;2023-05-31T01:32:26;8.63;;;3.15;;
78181;SDS011;67441;50.116;8.696;2023-05-31T01:33:17;7.97;;;3.30;;
78181;SDS011;67441;50.116;8.696;2023-05-31T01:33:45;6.55;;;3.20;;
78181;SDS011;67441;50.116;8.696;2023-05-31T01:34:12;6.32;;;3.25;;
78181;SDS011;67441;50.116;8.696;2023-05-31T01:35:03;7.60;;;3.80;;
78181;SDS011;67441;50.116;8.696;2023-05-31T01:35:54;5.63;;;3.50;;
78181;SDS011;67441;50.116;8.696;2023-05-31T01:36:45;7.10;;;3.33;;
78181;SDS011;67441;50.116;8.696;2023-05-31T01:37:35;7.03;;;3.30;;
78181;SDS011;67441;50.116;8.696;2023-05-31T01:38:25;6.57;;;3.47;;
78181;SDS011;67441;50.116;8.696;2023-05-31T01:39:16;8.40;;;3.17;;
78181;SDS011;67441;50.116;8.696;2023-05-31T01:39:43;6.43;;;3.42;;
78181;SDS011;67441;50.116;8.696;2023-05-31T01:40:35;5.38;;;3.30;;
78181;SDS011;67441;50.116;8.696;2023-05-31T01:41:27;6.60;;;3.15;;
78181;SDS011;67441;50.116;8.696;2023-05-31T01:41:53;8.55;;;3.40;;
78181;SDS011;67441;50.116;8.696;2023-05-31T01:42:20;6.65;;;3.38;;
78181;SDS011;67441;50.116;8.696;2023-05-31T01:42:47;6.55;;;3.20;;
78181;SDS011;67441;50.116;8.696;2023-05-31T01:43:14;6.78;;;2.88;;
78181;SDS011;67441;50.116;8.696;2023-05-31T01:43:43;7.45;;;3.22;;
78181;SDS011;67441;50.116;8.696;2023-05-31T01:44:10;7.95;;;3.65;;
78181;SDS011;67441;50.116;8.696;2023-05-31T01:44:38;7.20;;;3.28;;
78181;SDS011;67441;50.116;8.696;2023-05-31T01:45:05;7.57;;;3.88;;
78181;SDS011;67441;50.116;8.696;2023-05-31T01:45:31;7.38;;;2.97;;
78181;SDS011;67441;50.116;8.696;2023-05-31T01:45:58;6.13;;;3.30;;
78181;SDS011;67441;50.116;8.696;2023-05-31T01:46:25;5.70;;;3.33;;
78181;SDS011;67441;50.116;8.696;2023-05-31T01:46:51;8.68;;;3.35;;
78181;SDS011;67441;50.116;8.696;2023-05-31T01:47:43;6.55;;;3.05;;
78181;SDS011;67441;50.116;8.696;2023-05-31T01:48:10;6.40;;;3.03;;
78181;SDS011;67441;50.116;8.696;2023-05-31T01:49:02;5.82;;;3.25;;
78181;SDS011;67441;50.116;8.696;2023-05-31T01:49:52;6.65;;;3.10;;
78181;SDS011;67441;50.116;8.696;2023-05-31T01:50:44;6.25;;;3.50;;
78181;SDS011;67441;50.116;8.696;2023-05-31T01:51:37;7.78;;;3.17;;
78181;SDS011;67441;50.116;8.696;2023-05-31T01:52:05;5.45;;;3.10;;
78181;SDS011;67441;50.116;8.696;2023-05-31T01:52:31;9.73;;;3.10;;
78181;SDS011;67441;50.116;8.696;2023-05-31T01:52:59;7.20;;;3.03;;
78181;SDS011;67441;50.116;8.696;2023-05-31T01:53:50;8.30;;;3.58;;
78181;SDS011;67441;50.116;8.696;2023-05-31T01:54:41;6.55;;;2.80;;
78181;SDS011;67441;50.116;8.696;2023-05-31T01:55:31;8.15;;;3.80;;
78181;SDS011;67441;50.116;8.696;2023-05-31T01:56:22;6.82;;;3.15;;
78181;SDS011;67441;50.116;8.696;2023-05-31T01:56:50;7.93;;;3.55;;
78181;SDS011;67441;50.116;8.696;2023-05-31T01:57:42;7.82;;;3.40;;
78181;SDS011;67441;50.116;8.696;2023-05-31T01:58:09;8.45;;;3.35;;
78181;SDS011;67441;50.116;8.696;2023-05-31T01:58:36;6.68;;;3.22;;
78181;SDS011;67441;50.116;8.696;2023-05-31T01:59:03;6.68;;;3.30;;
78181;SDS011;67441;50.116;8.696;2023-05-31T01:59:32;6.05;;;2.90;;
78181;SDS011;67441;50.116;8.696;2023-05-31T01:59:59;5.57;;;3.03;;
78181;SDS011;67441;50.116;8.696;2023-05-31T02:00:26;4.93;;;3.35;;
78181;SDS011;67441;50.116;8.696;2023-05-31T02:01:17;8.00;;;3.08;;
78181;SDS011;67441;50.116;8.696;2023-05-31T02:01:43;7.20;;;3.47;;
78181;SDS011;67441;50.116;8.696;2023-05-31T02:02:34;5.80;;;3.03;;
78181;SDS011;67441;50.116;8.696;2023-05-31T02:03:26;6.72;;;3.70;;
78181;SDS011;67441;50.116;8.696;2023-05-31T02:04:18;5.63;;;3.22;;
78181;SDS011;67441;50.116;8.696;2023-05-31T02:04:44;5.93;;;3.08;;
78181;SDS011;67441;50.116;8.696;2023-05-31T02:05:53;5.35;;;2.95;;
78181;SDS011;67441;50.116;8.696;2023-05-31T02:06:19;6.85;;;3.85;;
78181;SDS011;67441;50.116;8.696;2023-05-31T02:07:09;8.07;;;3.20;;
78181;SDS011;67441;50.116;8.696;2023-05-31T02:07:37;7.50;;;3.15;;
78181;SDS011;67441;50.116;8.696;2023-05-31T02:08:28;7.35;;;3.45;;
78181;SDS011;67441;50.116;8.696;2023-05-31T02:09:22;7.95;;;3.60;;
78181;SDS011;67441;50.116;8.696;2023-05-31T02:09:48;6.15;;;3.90;;
78181;SDS011;67441;50.116;8.696;2023-05-31T02:10:38;7.68;;;3.50;;
78181;SDS011;67441;50.116;8.696;2023-05-31T02:11:29;9.20;;;3.97;;
78181;SDS011;67441;50.116;8.696;2023-05-31T02:12:19;5.90;;;3.35;;
78181;SDS011;67441;50.116;8.696;2023-05-31T02:13:10;6.75;;;3.78;;
78181;SDS011;67441;50.116;8.696;2023-05-31T02:14:00;8.68;;;3.70;;
78181;SDS011;67441;50.116;8.696;2023-05-31T02:14:51;7.50;;;3.83;;
78181;SDS011;67441;50.116;8.696;2023-05-31T02:15:44;7.13;;;3.70;;
78181;SDS011;67441;50.116;8.696;2023-05-31T02:16:34;7.25;;;3.50;;
78181;SDS011;67441;50.116;8.696;2023-05-31T02:17:25;6.75;;;3.50;;
78181;SDS011;67441;50.116;8.696;2023-05-31T02:18:16;6.65;;;4.22;;
78181;SDS011;67441;50.116;8.696;2023-05-31T02:19:07;8.02;;;3.40;;
78181;SDS011;67441;50.116;8.696;2023-05-31T02:19:58;9.88;;;4.07;;
78181;SDS011;67441;50.116;8.696;2023-05-31T02:20:49;9.68;;;3.55;;
78181;SDS011;67441;50.116;8.696;2023-05-31T02:21:40;8.65;;;3.80;;
78181;SDS011;67441;50.116;8.696;2023-05-31T02:22:30;9.27;;;3.28;;
78181;SDS011;67441;50.116;8.696;2023-05-31T02:23:21;7.13;;;3.50;;
78181;SDS011;67441;50.116;8.696;2023-05-31T02:24:12;7.32;;;3.90;;
78181;SDS011;67441;50.116;8.696;2023-05-31T02:25:02;6.68;;;3.58;;
78181;SDS011;67441;50.116;8.696;2023-05-31T02:25:53;7.18;;;3.95;;
78181;SDS011;67441;50.116;8.696;2023-05-31T02:26:20;6.47;;;3.55;;
78181;SDS011;67441;50.116;8.696;2023-05-31T02:26:46;6.28;;;3.20;;
78181;SDS011;67441;50.116;8.696;2023-05-31T02:27:38;5.82;;;3.35;;
78181;SDS011;67441;50.116;8.696;2023-05-31T02:28:03;9.40;;;3.75;;
78181;SDS011;67441;50.116;8.696;2023-05-31T02:28:55;5.95;;;3.50;;
78181;SDS011;67441;50.116;8.696;2023-05-31T02:29:45;8.05;;;3.38;;
78181;SDS011;67441;50.116;8.696;2023-05-31T02:30:36;6.28;;;3.75;;
78181;SDS011;67441;50.116;8.696;2023-05-31T02:31:03;6.00;;;3.03;;
78181;SDS011;67441;50.116;8.696;2023-05-31T02:31:53;6.68;;;3.35;;
78181;SDS011;67441;50.116;8.696;2023-05-31T02:32:44;6.45;;;3.65;;
78181;SDS011;67441;50.116;8.696;2023-05-31T02:33:35;7.25;;;3.40;;
78181;SDS011;67441;50.116;8.696;2023-05-31T02:34:25;5.45;;;3.30;;
78181;SDS011;67441;50.116;8.696;2023-05-31T02:35:16;7.60;;;3.80;;
78181;SDS011;67441;50.116;8.696;2023-05-31T02:36:07;6.07;;;3.30;;
78181;SDS011;67441;50.116;8.696;2023-05-31T02:36:33;8.05;;;3.65;;
78181;SDS011;67441;50.116;8.696;2023-05-31T02:37:27;7.60;;;3.20;;
78181;SDS011;67441;50.116;8.696;2023-05-31T02:38:18;7.25;;;3.05;;
78181;SDS011;67441;50.116;8.696;2023-05-31T02:38:45;7.22;;;3.78;;
78181;SDS011;67441;50.116;8.696;2023-05-31T02:39:35;4.93;;;3.05;;
78181;SDS011;67441;50.116;8.696;2023-05-31T02:40:31;7.68;;;3.08;;
78181;SDS011;67441;50.116;8.696;2023-05-31T02:41:22;7.07;;;3.50;;
78181;SDS011;67441;50.116;8.696;2023-05-31T02:42:12;9.38;;;3.70;;
78181;SDS011;67441;50.116;8.696;2023-05-31T02:43:04;8.77;;;3.72;;
78181;SDS011;67441;50.116;8.696;2023-05-31T02:44:03;7.63;;;3.45;;
78181;SDS011;67441;50.116;8.696;2023-05-31T02:44:54;8.68;;;3.45;;
78181;SDS011;67441;50.116;8.696;2023-05-31T02:45:45;5.50;;;3.17;;
78181;SDS011;67441;50.116;8.696;2023-05-31T02:46:36;8.63;;;3.35;;
78181;SDS011;67441;50.116;8.696;2023-05-31T02:47:26;6.00;;;3.38;;
78181;SDS011;67441;50.116;8.696;2023-05-31T02:48:17;7.60;;;3.80;;
78181;SDS011;67441;50.116;8.696;2023-05-31T02:49:07;7.20;;;3.83;;
78181;SDS011;67441;50.116;8.696;2023-05-31T02:49:58;6.70;;;3.80;;
78181;SDS011;67441;50.116;8.696;2023-05-31T02:50:49;6.43;;;3.47;;
78181;SDS011;67441;50.116;8.696;2023-05-31T02:51:40;6.80;;;3.40;;
78181;SDS011;67441;50.116;8.696;2023-05-31T02:52:30;6.13;;;3.33;;
78181;SDS011;67441;50.116;8.696;2023-05-31T02:53:21;7.93;;;3.35;;
78181;SDS011;67441;50.116;8.696;2023-05-31T02:54:12;5.20;;;3.28;;
78181;SDS011;67441;50.116;8.696;2023-05-31T02:55:03;7.13;;;3.63;;
78181;SDS011;67441;50.116;8.696;2023-05-31T02:55:29;6.90;;;3.75;;
78181;SDS011;67441;50.116;8.696;2023-05-31T02:55:56;8.38;;;3.63;;
78181;SDS011;67441;50.116;8.696;2023-05-31T02:56:46;7.13;;;3.30;;
78181;SDS011;67441;50.116;8.696;2023-05-31T02:57:37;6.18;;;3.55;;
78181;SDS011;67441;50.116;8.696;2023-05-31T02:58:31;6.57;;;3.33;;
78181;SDS011;67441;50.116;8.696;2023-05-31T02:59:23;5.97;;;3.53;;
78181;SDS011;67441;50.116;8.696;2023-05-31T02:59:48;6.28;;;3.33;;
78181;SDS011;67441;50.116;8.696;2023-05-31T03:00:39;7.88;;;3.75;;
78181;SDS011;67441;50.116;8.696;2023-05-31T03:01:30;6.40;;;3.20;;
78181;SDS011;67441;50.116;8.696;2023-05-31T03:02:21;6.10;;;3.60;;
78181;SDS011;67441;50.116;8.696;2023-05-31T03:03:12;7.70;;;3.72;;
78181;SDS011;67441;50.116;8.696;2023-05-31T03:04:02;4.95;;;3.45;;
78181;SDS011;67441;50.116;8.696;2023-05-31T03:04:53;6.68;;;3.72;;
78181;SDS011;67441;50.116;8.696;2023-05-31T03:05:43;8.85;;;3.47;;
78181;SDS011;67441;50.116;8.696;2023-05-31T03:06:34;7.25;;;3.72;;
78181;SDS011;67441;50.116;8.696;2023-05-31T03:07:24;7.57;;;4.13;;
78181;SDS011;67441;50.116;8.696;2023-05-31T03:08:15;9.93;;;3.65;;
78181;SDS011;67441;50.116;8.696;2023-05-31T03:09:06;7.43;;;3.50;;
78181;SDS011;67441;50.116;8.696;2023-05-31T03:09:32;6.00;;;3.40;;
78181;SDS011;67441;50.116;8.696;2023-05-31T03:10:23;8.05;;;3.92;;
78181;SDS011;67441;50.116;8.696;2023-05-31T03:11:14;8.35;;;4.10;;
78181;SDS011;67441;50.116;8.696;2023-05-31T03:12:05;6.38;;;3.70;;
78181;SDS011;67441;50.116;8.696;2023-05-31T03:12:31;6.97;;;3.58;;
78181;SDS011;67441;50.116;8.696;2023-05-31T03:13:21;5.75;;;3.63;;
78181;SDS011;67441;50.116;8.696;2023-05-31T03:14:12;6.68;;;3.42;;
78181;SDS011;67441;50.116;8.696;2023-05-31T03:15:02;8.63;;;3.20;;
78181;SDS011;67441;50.116;8.696;2023-05-31T03:15:29;9.15;;;3.72;;
78181;SDS011;67441;50.116;8.696;2023-05-31T03:16:19;5.82;;;3.65;;
78181;SDS011;67441;50.116;8.696;2023-05-31T03:17:10;7.28;;;3.70;;
78181;SDS011;67441;50.116;8.696;2023-05-31T03:18:02;7.07;;;3.88;;
78181;SDS011;67441;50.116;8.696;2023-05-31T03:18:28;7.63;;;3.75;;
78181;SDS011;67441;50.116;8.696;2023-05-31T03:19:19;6.40;;;3.50;;
78181;SDS011;67441;50.116;8.696;2023-05-31T03:20:09;8.05;;;3.25;;
78181;SDS011;67441;50.116;8.696;2023-05-31T03:21:00;7.68;;;3.47;;
78181;SDS011;67441;50.116;8.696;2023-05-31T03:21:51;6.40;;;3.60;;
78181;SDS011;67441;50.116;8.696;2023-05-31T03:22:41;10.55;;;4.05;;
78181;SDS011;67441;50.116;8.696;2023-05-31T03:23:32;7.45;;;3.60;;
78181;SDS011;67441;50.116;8.696;2023-05-31T03:24:22;7.78;;;3.15;;
78181;SDS011;67441;50.116;8.696;2023-05-31T03:25:14;5.93;;;3.88;;
78181;SDS011;67441;50.116;8.696;2023-05-31T03:25:40;8.07;;;3.72;;
78181;SDS011;67441;50.116;8.696;2023-05-31T03:26:31;6.55;;;3.80;;
78181;SDS011;67441;50.116;8.696;2023-05-31T03:27:21;8.85;;;4.40;;
78181;SDS011;67441;50.116;8.696;2023-05-31T03:28:12;5.50;;;3.22;;
78181;SDS011;67441;50.116;8.696;2023-05-31T03:29:02;8.65;;;3.80;;
78181;SDS011;67441;50.116;8.696;2023-05-31T03:29:53;6.75;;;3.30;;
78181;SDS011;67441;50.116;8.696;2023-05-31T03:30:43;8.05;;;4.47;;
78181;SDS011;67441;50.116;8.696;2023-05-31T03:31:34;7.07;;;3.95;;
78181;SDS011;67441;50.116;8.696;2023-05-31T03:32:24;7.15;;;3.35;;
78181;SDS011;67441;50.116;8.696;2023-05-31T03:33:15;7.75;;;3.78;;
78181;SDS011;67441;50.116;8.696;2023-05-31T03:34:08;7.30;;;3.92;;
78181;SDS011;67441;50.116;8.696;2023-05-31T03:34:33;6.00;;;3.50;;
78181;SDS011;67441;50.116;8.696;2023-05-31T03:34:59;7.80;;;3.35;;
78181;SDS011;67441;50.116;8.696;2023-05-31T03:35:50;7.95;;;3.05;;
78181;SDS011;67441;50.116;8.696;2023-05-31T03:36:41;8.52;;;3.75;;
78181;SDS011;67441;50.116;8.696;2023-05-31T03:37:31;7.18;;;3.60;;
78181;SDS011;67441;50.116;8.696;2023-05-31T03:38:22;7.60;;;3.20;;
78181;SDS011;67441;50.116;8.696;2023-05-31T03:39:12;5.72;;;3.40;;
78181;SDS011;67441;50.116;8.696;2023-05-31T03:40:03;7.03;;;3.58;;
78181;SDS011;67441;50.116;8.696;2023-05-31T03:40:29;7.22;;;3.65;;
78181;SDS011;67441;50.116;8.696;2023-05-31T03:41:19;7.22;;;3.35;;
78181;SDS011;67441;50.116;8.696;2023-05-31T03:42:10;7.80;;;3.60;;
78181;SDS011;67441;50.116;8.696;2023-05-31T03:43:00;7.03;;;3.80;;
78181;SDS011;67441;50.116;8.696;2023-05-31T03:43:51;9.00;;;3.40;;
78181;SDS011;67441;50.116;8.696;2023-05-31T03:44:42;7.20;;;3.53;;
78181;SDS011;67441;50.116;8.696;2023-05-31T03:45:08;7.22;;;3.65;;
78181;SDS011;67441;50.116;8.696;2023-05-31T03:45:59;6.05;;;3.40;;
78181;SDS011;67441;50.116;8.696;2023-05-31T03:46:27;8.90;;;3.63;;
78181;SDS011;67441;50.116;8.696;2023-05-31T03:47:18;6.05;;;3.38;;
78181;SDS011;67441;50.116;8.696;2023-05-31T03:48:08;9.18;;;4.00;;
78181;SDS011;67441;50.116;8.696;2023-05-31T03:48:59;7.00;;;3.47;;
78181;SDS011;67441;50.116;8.696;2023-05-31T03:49:50;8.00;;;3.33;;
78181;SDS011;67441;50.116;8.696;2023-05-31T03:50:40;5.90;;;3.35;;
78181;SDS011;67441;50.116;8.696;2023-05-31T03:51:31;8.63;;;3.50;;
78181;SDS011;67441;50.116;8.696;2023-05-31T03:52:22;5.78;;;3.58;;
78181;SDS011;67441;50.116;8.696;2023-05-31T03:53:12;6.57;;;3.47;;
78181;SDS011;67441;50.116;8.696;2023-05-31T03:54:03;7.55;;;3.83;;
78181;SDS011;67441;50.116;8.696;2023-05-31T03:54:54;7.72;;;3.85;;
78181;SDS011;67441;50.116;8.696;2023-05-31T03:55:45;7.43;;;3.60;;
78181;SDS011;67441;50.116;8.696;2023-05-31T03:56:36;5.40;;;3.25;;
78181;SDS011;67441;50.116;8.696;2023-05-31T03:57:26;6.78;;;3.53;;
78181;SDS011;67441;50.116;8.696;2023-05-31T03:58:17;6.38;;;3.20;;
78181;SDS011;67441;50.116;8.696;2023-05-31T03:59:08;7.28;;;3.13;;
78181;SDS011;67441;50.116;8.696;2023-05-31T03:59:59;9.23;;;3.60;;
78181;SDS011;67441;50.116;8.696;2023-05-31T04:00:50;7.50;;;3.40;;
78181;SDS011;67441;50.116;8.696;2023-05-31T04:01:42;6.20;;;3.42;;
78181;SDS011;67441;50.116;8.696;2023-05-31T04:02:33;7.07;;;3.63;;
78181;SDS011;67441;50.116;8.696;2023-05-31T04:03:24;5.97;;;3.50;;
78181;SDS011;67441;50.116;8.696;2023-05-31T04:04:14;5.03;;;3.40;;
78181;SDS011;67441;50.116;8.696;2023-05-31T04:05:05;5.68;;;4.20;;
78181;SDS011;67441;50.116;8.696;2023-05-31T04:05:56;8.07;;;3.38;;
78181;SDS011;67441;50.116;8.696;2023-05-31T04:06:47;7.18;;;3.50;;
78181;SDS011;67441;50.116;8.696;2023-05-31T04:07:37;9.77;;;4.00;;
78181;SDS011;67441;50.116;8.696;2023-05-31T04:08:28;5.90;;;4.07;;
78181;SDS011;67441;50.116;8.696;2023-05-31T04:09:19;6.07;;;3.90;;
78181;SDS011;67441;50.116;8.696;2023-05-31T04:10:09;8.52;;;3.85;;
78181;SDS011;67441;50.116;8.696;2023-05-31T04:11:00;7.47;;;3.45;;
78181;SDS011;67441;50.116;8.696;2023-05-31T04:11:51;8.10;;;3.60;;
78181;SDS011;67441;50.116;8.696;2023-05-31T04:12:41;8.00;;;3.53;;
78181;SDS011;67441;50.116;8.696;2023-05-31T04:13:32;7.82;;;3.42;;
78181;SDS011;67441;50.116;8.696;2023-05-31T04:14:23;10.68;;;3.83;;
78181;SDS011;67441;50.116;8.696;2023-05-31T04:15:13;9.32;;;3.95;;
78181;SDS011;67441;50.116;8.696;2023-05-31T04:16:04;9.02;;;3.88;;
78181;SDS011;67441;50.116;8.696;2023-05-31T04:16:55;8.98;;;3.58;;
78181;SDS011;67441;50.116;8.696;2023-05-31T04:17:45;9.38;;;4.10;;
78181;SDS011;67441;50.116;8.696;2023-05-31T04:18:36;6.03;;;3.67;;
78181;SDS011;67441;50.116;8.696;2023-05-31T04:19:26;7.93;;;3.92;;
78181;SDS011;67441;50.116;8.696;2023-05-31T04:20:17;8.52;;;3.90;;
78181;SDS011;67441;50.116;8.696;2023-05-31T04:20:43;10.32;;;3.63;;
78181;SDS011;67441;50.116;8.696;2023-05-31T04:21:34;6.78;;;3.85;;
78181;SDS011;67441;50.116;8.696;2023-05-31T04:22:00;7.05;;;3.55;;
78181;SDS011;67441;50.116;8.696;2023-05-31T04:22:26;8.27;;;3.60;;
78181;SDS011;67441;50.116;8.696;2023-05-31T04:23:18;9.15;;;3.45;;
78181;SDS011;67441;50.116;8.696;2023-05-31T04:24:08;8.90;;;4.45;;
78181;SDS011;67441;50.116;8.696;2023-05-31T04:24:59;7.43;;;3.95;;
78181;SDS011;67441;50.116;8.696;2023-05-31T04:25:49;7.15;;;3.78;;
78181;SDS011;67441;50.116;8.696;2023-05-31T04:26:42;9.23;;;3.92;;
78181;SDS011;67441;50.116;8.696;2023-05-31T04:27:33;7.63;;;3.45;;
78181;SDS011;67441;50.116;8.696;2023-05-31T04:28:23;5.70;;;3.42;;
78181;SDS011;67441;50.116;8.696;2023-05-31T04:29:18;7.90;;;4.05;;
78181;SDS011;67441;50.116;8.696;2023-05-31T04:30:10;10.10;;;3.75;;
78181;SDS011;67441;50.116;8.696;2023-05-31T04:31:01;8.15;;;3.45;;
78181;SDS011;67441;50.116;8.696;2023-05-31T04:31:54;7.13;;;3.53;;
78181;SDS011;67441;50.116;8.696;2023-05-31T04:32:46;8.13;;;3.55;;
78181;SDS011;67441;50.116;8.696;2023-05-31T04:33:17;7.45;;;3.63;;
78181;SDS011;67441;50.116;8.696;2023-05-31T04:34:09;8.13;;;3.90;;
78181;SDS011;67441;50.116;8.696;2023-05-31T04:34:35;7.15;;;3.65;;
78181;SDS011;67441;50.116;8.696;2023-05-31T04:35:01;6.55;;;3.30;;
78181;SDS011;67441;50.116;8.696;2023-05-31T04:35:28;5.93;;;3.30;;
78181;SDS011;67441;50.116;8.696;2023-05-31T04:35:56;5.53;;;3.20;;